sensor_id;sensor_type;location;lat;lon;timestamp;temperature;humidity
12384;DHT22;6256;63.808;20.336;2023-11-19T00:02:21;-9.40;99.90
12384;DHT22;6256;63.808;20.336;2023-11-19T00:04:47;-9.40;99.90
12384;DHT22;6256;63.808;20.336;2023-11-19T00:07:13;-9.30;99.90
12384;DHT22;6256;63.808;20.336;2023-11-19T00:09:39;-9.30;99.90
12384;DHT22;6256;63.808;20.336;2023-11-19T00:12:06;-9.30;99.90
12384;DHT22;6256;63.808;20.336;2023-11-19T00:14:32;-9.30;99.90
12384;DHT22;6256;63.808;20.336;2023-11-19T00:16:58;-9.30;99.90
12384;DHT22;6256;63.808;20.336;2023-11-19T00:19:24;-9.30;99.90
12384;DHT22;6256;63.808;20.336;2023-11-19T00:21:50;-9.20;99.90
12384;DHT22;6256;63.808;20.336;2023-11-19T00:24:16;-9.20;99.90
12384;DHT22;6256;63.808;20.336;2023-11-19T00:26:42;-9.20;99.90
12384;DHT22;6256;63.808;20.336;2023-11-19T00:29:08;-9.20;99.90
12384;DHT22;6256;63.808;20.336;2023-11-19T00:31:34;-9.10;99.90
12384;DHT22;6256;63.808;20.336;2023-11-19T00:34:00;-9.10;99.90
12384;DHT22;6256;63.808;20.336;2023-11-19T00:36:27;-9.00;99.90
12384;DHT22;6256;63.808;20.336;2023-11-19T00:38:53;-9.00;99.90
12384;DHT22;6256;63.808;20.336;2023-11-19T00:41:19;-9.10;99.90
12384;DHT22;6256;63.808;20.336;2023-11-19T00:43:45;-9.10;99.90
12384;DHT22;6256;63.808;20.336;2023-11-19T00:46:11;-9.00;99.90
12384;DHT22;6256;63.808;20.336;2023-11-19T00:48:37;-9.00;99.90
12384;DHT22;6256;63.808;20.336;2023-11-19T00:51:03;-9.00;99.90
12384;DHT22;6256;63.808;20.336;2023-11-19T00:53:32;-9.00;99.90
12384;DHT22;6256;63.808;20.336;2023-11-19T00:55:59;-8.90;99.90
12384;DHT22;6256;63.808;20.336;2023-11-19T00:58:25;-9.00;99.90
12384;DHT22;6256;63.808;20.336;2023-11-19T01:00:50;-9.00;99.90
12384;DHT22;6256;63.808;20.336;2023-11-19T01:03:16;-8.90;99.90
12384;DHT22;6256;63.808;20.336;2023-11-19T01:05:42;-8.90;99.90
12384;DHT22;6256;63.808;20.336;2023-11-19T01:08:08;-8.80;99.90
12384;DHT22;6256;63.808;20.336;2023-11-19T01:10:34;-8.80;99.90
12384;DHT22;6256;63.808;20.336;2023-11-19T01:13:02;-8.70;99.90
12384;DHT22;6256;63.808;20.336;2023-11-19T01:15:31;-8.60;99.90
12384;DHT22;6256;63.808;20.336;2023-11-19T01:17:56;-8.60;99.90
12384;DHT22;6256;63.808;20.336;2023-11-19T01:20:22;-8.70;99.90
12384;DHT22;6256;63.808;20.336;2023-11-19T01:22:48;-8.70;99.90
12384;DHT22;6256;63.808;20.336;2023-11-19T01:25:14;-8.80;99.90
12384;DHT22;6256;63.808;20.336;2023-11-19T01:27:39;-8.90;99.90
12384;DHT22;6256;63.808;20.336;2023-11-19T01:30:05;-9.00;99.90
12384;DHT22;6256;63.808;20.336;2023-11-19T01:32:35;-9.00;99.90
12384;DHT22;6256;63.808;20.336;2023-11-19T01:35:03;-9.00;99.90
12384;DHT22;6256;63.808;20.336;2023-11-19T01:37:29;-9.20;99.90
12384;DHT22;6256;63.808;20.336;2023-11-19T01:39:54;-9.20;99.90
12384;DHT22;6256;63.808;20.336;2023-11-19T01:42:20;-9.20;99.90
12384;DHT22;6256;63.808;20.336;2023-11-19T01:44:58;-9.30;99.90
12384;DHT22;6256;63.808;20.336;2023-11-19T01:47:26;-9.40;99.90
12384;DHT22;6256;63.808;20.336;2023-11-19T01:49:52;-9.40;99.90
12384;DHT22;6256;63.808;20.336;2023-11-19T01:52:18;-9.50;99.90
12384;DHT22;6256;63.808;20.336;2023-11-19T01:54:45;-9.50;99.90
12384;DHT22;6256;63.808;20.336;2023-11-19T01:57:11;-9.60;99.90
12384;DHT22;6256;63.808;20.336;2023-11-19T01:59:37;-9.60;99.90
12384;DHT22;6256;63.808;20.336;2023-11-19T02:02:05;-9.60;99.90
12384;DHT22;6256;63.808;20.336;2023-11-19T02:04:31;-9.70;99.90
12384;DHT22;6256;63.808;20.336;2023-11-19T02:06:58;-9.70;99.90
12384;DHT22;6256;63.808;20.336;2023-11-19T02:11:50;-9.80;99.90
12384;DHT22;6256;63.808;20.336;2023-11-19T02:14:24;-9.90;99.90
12384;DHT22;6256;63.808;20.336;2023-11-19T02:16:51;-9.90;99.90
12384;DHT22;6256;63.808;20.336;2023-11-19T02:19:19;-10.00;99.90
12384;DHT22;6256;63.808;20.336;2023-11-19T02:21:45;-10.00;99.90
12384;DHT22;6256;63.808;20.336;2023-11-19T02:24:12;-10.10;99.90
12384;DHT22;6256;63.808;20.336;2023-11-19T02:26:43;-10.10;99.90
12384;DHT22;6256;63.808;20.336;2023-11-19T02:29:11;-10.10;99.90
12384;DHT22;6256;63.808;20.336;2023-11-19T02:31:37;-10.10;99.90
12384;DHT22;6256;63.808;20.336;2023-11-19T02:34:03;-10.20;99.90
12384;DHT22;6256;63.808;20.336;2023-11-19T02:36:29;-10.20;99.90
12384;DHT22;6256;63.808;20.336;2023-11-19T02:38:54;-10.30;99.90
12384;DHT22;6256;63.808;20.336;2023-11-19T02:41:20;-10.30;99.90
12384;DHT22;6256;63.808;20.336;2023-11-19T02:43:46;-10.30;99.90
12384;DHT22;6256;63.808;20.336;2023-11-19T02:46:14;-10.40;99.90
12384;DHT22;6256;63.808;20.336;2023-11-19T02:48:40;-10.40;99.90
12384;DHT22;6256;63.808;20.336;2023-11-19T02:51:06;-10.40;99.90
12384;DHT22;6256;63.808;20.336;2023-11-19T02:53:35;-10.40;99.90
12384;DHT22;6256;63.808;20.336;2023-11-19T02:56:00;-10.50;99.90
12384;DHT22;6256;63.808;20.336;2023-11-19T02:58:32;-10.50;99.90
12384;DHT22;6256;63.808;20.336;2023-11-19T03:00:57;-10.60;99.90
12384;DHT22;6256;63.808;20.336;2023-11-19T03:03:25;-10.60;99.90
12384;DHT22;6256;63.808;20.336;2023-11-19T03:05:56;-10.70;99.90
12384;DHT22;6256;63.808;20.336;2023-11-19T03:08:22;-10.80;99.90
12384;DHT22;6256;63.808;20.336;2023-11-19T03:10:48;-10.70;99.90
12384;DHT22;6256;63.808;20.336;2023-11-19T03:13:15;-10.80;99.90
12384;DHT22;6256;63.808;20.336;2023-11-19T03:15:41;-10.80;99.90
12384;DHT22;6256;63.808;20.336;2023-11-19T03:18:07;-10.90;99.90
12384;DHT22;6256;63.808;20.336;2023-11-19T03:20:33;-10.90;99.90
12384;DHT22;6256;63.808;20.336;2023-11-19T03:22:59;-10.90;99.90
12384;DHT22;6256;63.808;20.336;2023-11-19T03:25:27;-10.90;99.90
12384;DHT22;6256;63.808;20.336;2023-11-19T03:27:58;-11.00;99.90
12384;DHT22;6256;63.808;20.336;2023-11-19T03:30:24;-11.00;99.90
12384;DHT22;6256;63.808;20.336;2023-11-19T03:32:50;-11.00;99.90
12384;DHT22;6256;63.808;20.336;2023-11-19T03:35:16;-11.10;99.90
12384;DHT22;6256;63.808;20.336;2023-11-19T03:40:09;-11.10;99.90
12384;DHT22;6256;63.808;20.336;2023-11-19T03:42:35;-11.10;99.90
12384;DHT22;6256;63.808;20.336;2023-11-19T03:45:01;-11.10;99.90
12384;DHT22;6256;63.808;20.336;2023-11-19T03:47:29;-11.00;99.90
12384;DHT22;6256;63.808;20.336;2023-11-19T03:49:54;-11.00;99.90
12384;DHT22;6256;63.808;20.336;2023-11-19T03:52:20;-10.90;99.90
12384;DHT22;6256;63.808;20.336;2023-11-19T03:54:46;-10.90;99.90
12384;DHT22;6256;63.808;20.336;2023-11-19T03:57:15;-10.80;99.90
12384;DHT22;6256;63.808;20.336;2023-11-19T03:59:41;-10.90;99.90
12384;DHT22;6256;63.808;20.336;2023-11-19T04:02:07;-10.80;99.90
12384;DHT22;6256;63.808;20.336;2023-11-19T04:04:33;-10.80;99.90
12384;DHT22;6256;63.808;20.336;2023-11-19T04:07:01;-10.80;99.90
12384;DHT22;6256;63.808;20.336;2023-11-19T04:09:28;-10.80;99.90
12384;DHT22;6256;63.808;20.336;2023-11-19T04:11:55;-10.80;99.90
12384;DHT22;6256;63.808;20.336;2023-11-19T04:14:21;-10.90;99.90
12384;DHT22;6256;63.808;20.336;2023-11-19T04:16:47;-10.80;99.90
12384;DHT22;6256;63.808;20.336;2023-11-19T04:19:13;-10.80;99.90
12384;DHT22;6256;63.808;20.336;2023-11-19T04:21:41;-10.70;99.90
12384;DHT22;6256;63.808;20.336;2023-11-19T04:24:08;-10.70;99.90
12384;DHT22;6256;63.808;20.336;2023-11-19T04:26:34;-10.70;99.90
12384;DHT22;6256;63.808;20.336;2023-11-19T04:28:59;-10.80;99.90
12384;DHT22;6256;63.808;20.336;2023-11-19T04:31:29;-10.90;99.90
12384;DHT22;6256;63.808;20.336;2023-11-19T04:33:57;-10.90;99.90
12384;DHT22;6256;63.808;20.336;2023-11-19T04:36:22;-10.90;99.90
12384;DHT22;6256;63.808;20.336;2023-11-19T04:38:50;-11.00;99.90
12384;DHT22;6256;63.808;20.336;2023-11-19T04:41:16;-10.90;99.90
12384;DHT22;6256;63.808;20.336;2023-11-19T04:43:43;-10.90;99.90
12384;DHT22;6256;63.808;20.336;2023-11-19T04:46:10;-10.90;99.90
12384;DHT22;6256;63.808;20.336;2023-11-19T04:48:35;-11.00;99.90
12384;DHT22;6256;63.808;20.336;2023-11-19T04:51:01;-11.00;99.90
12384;DHT22;6256;63.808;20.336;2023-11-19T04:53:26;-11.00;99.90
12384;DHT22;6256;63.808;20.336;2023-11-19T04:55:52;-11.10;99.90
12384;DHT22;6256;63.808;20.336;2023-11-19T04:58:18;-11.20;99.90
12384;DHT22;6256;63.808;20.336;2023-11-19T05:00:44;-11.20;99.90
12384;DHT22;6256;63.808;20.336;2023-11-19T05:03:10;-11.20;99.90
12384;DHT22;6256;63.808;20.336;2023-11-19T05:05:36;-11.30;99.90
12384;DHT22;6256;63.808;20.336;2023-11-19T05:08:02;-11.30;99.90
12384;DHT22;6256;63.808;20.336;2023-11-19T05:10:28;-11.30;99.90
12384;DHT22;6256;63.808;20.336;2023-11-19T05:12:53;-11.30;99.90
12384;DHT22;6256;63.808;20.336;2023-11-19T05:15:21;-11.40;99.90
12384;DHT22;6256;63.808;20.336;2023-11-19T05:17:47;-11.40;99.90
12384;DHT22;6256;63.808;20.336;2023-11-19T05:20:13;-11.40;99.90
12384;DHT22;6256;63.808;20.336;2023-11-19T05:22:40;-11.50;99.90
12384;DHT22;6256;63.808;20.336;2023-11-19T05:25:06;-11.50;99.90
12384;DHT22;6256;63.808;20.336;2023-11-19T05:27:32;-11.50;99.90
12384;DHT22;6256;63.808;20.336;2023-11-19T05:29:58;-11.50;99.90
12384;DHT22;6256;63.808;20.336;2023-11-19T05:32:23;-11.50;99.90
12384;DHT22;6256;63.808;20.336;2023-11-19T05:34:49;-11.60;99.90
12384;DHT22;6256;63.808;20.336;2023-11-19T05:37:15;-11.60;99.90
12384;DHT22;6256;63.808;20.336;2023-11-19T05:39:40;-11.60;99.90
12384;DHT22;6256;63.808;20.336;2023-11-19T05:42:06;-11.60;99.90
12384;DHT22;6256;63.808;20.336;2023-11-19T05:44:32;-11.50;99.90
12384;DHT22;6256;63.808;20.336;2023-11-19T05:46:57;-11.50;99.90
12384;DHT22;6256;63.808;20.336;2023-11-19T05:49:23;-11.50;99.90
12384;DHT22;6256;63.808;20.336;2023-11-19T05:51:49;-11.50;99.90
12384;DHT22;6256;63.808;20.336;2023-11-19T05:54:14;-11.50;99.90
12384;DHT22;6256;63.808;20.336;2023-11-19T05:56:40;-11.40;99.90
12384;DHT22;6256;63.808;20.336;2023-11-19T05:59:07;-11.40;99.90
12384;DHT22;6256;63.808;20.336;2023-11-19T06:01:40;-11.40;99.90
12384;DHT22;6256;63.808;20.336;2023-11-19T06:04:07;-11.50;99.90
12384;DHT22;6256;63.808;20.336;2023-11-19T06:06:33;-11.50;99.90
12384;DHT22;6256;63.808;20.336;2023-11-19T06:08:59;-11.50;99.90
12384;DHT22;6256;63.808;20.336;2023-11-19T06:11:25;-11.50;99.90
12384;DHT22;6256;63.808;20.336;2023-11-19T06:13:52;-11.60;99.90
12384;DHT22;6256;63.808;20.336;2023-11-19T06:16:18;-11.60;99.90
12384;DHT22;6256;63.808;20.336;2023-11-19T06:18:44;-11.60;99.90
12384;DHT22;6256;63.808;20.336;2023-11-19T06:21:10;-11.60;99.90
12384;DHT22;6256;63.808;20.336;2023-11-19T06:23:36;-11.70;99.90
12384;DHT22;6256;63.808;20.336;2023-11-19T06:26:02;-11.70;99.90
12384;DHT22;6256;63.808;20.336;2023-11-19T06:28:28;-11.70;99.90
12384;DHT22;6256;63.808;20.336;2023-11-19T06:30:53;-11.70;99.90
12384;DHT22;6256;63.808;20.336;2023-11-19T06:33:19;-11.70;99.90
12384;DHT22;6256;63.808;20.336;2023-11-19T06:35:45;-11.70;99.90
12384;DHT22;6256;63.808;20.336;2023-11-19T06:38:11;-11.80;99.90
12384;DHT22;6256;63.808;20.336;2023-11-19T06:40:36;-11.80;99.90
12384;DHT22;6256;63.808;20.336;2023-11-19T06:43:03;-11.80;99.90
12384;DHT22;6256;63.808;20.336;2023-11-19T06:45:29;-11.90;99.90
12384;DHT22;6256;63.808;20.336;2023-11-19T06:47:55;-11.90;99.90
12384;DHT22;6256;63.808;20.336;2023-11-19T06:52:47;-11.90;99.90
12384;DHT22;6256;63.808;20.336;2023-11-19T06:55:12;-11.90;99.90
12384;DHT22;6256;63.808;20.336;2023-11-19T06:57:38;-11.90;99.90
12384;DHT22;6256;63.808;20.336;2023-11-19T07:00:05;-11.90;99.90
12384;DHT22;6256;63.808;20.336;2023-11-19T07:02:31;-12.00;99.90
12384;DHT22;6256;63.808;20.336;2023-11-19T07:04:58;-11.90;99.90
12384;DHT22;6256;63.808;20.336;2023-11-19T07:07:23;-12.00;99.90
12384;DHT22;6256;63.808;20.336;2023-11-19T07:09:49;-12.00;99.90
12384;DHT22;6256;63.808;20.336;2023-11-19T07:12:15;-12.00;99.90
12384;DHT22;6256;63.808;20.336;2023-11-19T07:14:41;-12.00;99.90
12384;DHT22;6256;63.808;20.336;2023-11-19T07:17:07;-12.00;99.90
12384;DHT22;6256;63.808;20.336;2023-11-19T07:19:34;-12.10;99.90
12384;DHT22;6256;63.808;20.336;2023-11-19T07:22:02;-12.00;99.90
12384;DHT22;6256;63.808;20.336;2023-11-19T07:24:27;-12.00;99.90
12384;DHT22;6256;63.808;20.336;2023-11-19T07:26:54;-12.00;99.90
12384;DHT22;6256;63.808;20.336;2023-11-19T07:29:20;-11.90;99.90
12384;DHT22;6256;63.808;20.336;2023-11-19T07:31:48;-11.60;99.90
12384;DHT22;6256;63.808;20.336;2023-11-19T07:34:14;-11.50;99.90
12384;DHT22;6256;63.808;20.336;2023-11-19T07:36:40;-11.40;99.90
12384;DHT22;6256;63.808;20.336;2023-11-19T07:39:06;-11.20;99.90
12384;DHT22;6256;63.808;20.336;2023-11-19T07:41:32;-11.00;99.90
12384;DHT22;6256;63.808;20.336;2023-11-19T07:43:58;-10.80;99.90
12384;DHT22;6256;63.808;20.336;2023-11-19T07:46:24;-10.50;99.90
12384;DHT22;6256;63.808;20.336;2023-11-19T07:48:50;-10.20;99.90
12384;DHT22;6256;63.808;20.336;2023-11-19T07:51:16;-10.00;99.90
12384;DHT22;6256;63.808;20.336;2023-11-19T07:53:42;-9.80;99.90
12384;DHT22;6256;63.808;20.336;2023-11-19T07:56:08;-9.60;99.90
12384;DHT22;6256;63.808;20.336;2023-11-19T07:58:34;-9.40;99.90
12384;DHT22;6256;63.808;20.336;2023-11-19T08:01:01;-9.30;99.90
12384;DHT22;6256;63.808;20.336;2023-11-19T08:03:29;-9.00;99.90
12384;DHT22;6256;63.808;20.336;2023-11-19T08:05:56;-8.90;99.90
12384;DHT22;6256;63.808;20.336;2023-11-19T08:08:22;-8.80;99.90
12384;DHT22;6256;63.808;20.336;2023-11-19T08:10:48;-8.60;99.90
12384;DHT22;6256;63.808;20.336;2023-11-19T08:13:14;-8.60;99.90
12384;DHT22;6256;63.808;20.336;2023-11-19T08:15:40;-8.50;99.90
12384;DHT22;6256;63.808;20.336;2023-11-19T08:18:06;-8.30;99.90
12384;DHT22;6256;63.808;20.336;2023-11-19T08:20:33;-8.20;99.90
12384;DHT22;6256;63.808;20.336;2023-11-19T08:22:59;-8.10;99.90
12384;DHT22;6256;63.808;20.336;2023-11-19T08:25:25;-8.10;99.90
12384;DHT22;6256;63.808;20.336;2023-11-19T08:27:52;-8.00;99.90
12384;DHT22;6256;63.808;20.336;2023-11-19T08:30:18;-8.00;99.90
12384;DHT22;6256;63.808;20.336;2023-11-19T08:32:44;-7.90;99.90
12384;DHT22;6256;63.808;20.336;2023-11-19T08:35:10;-7.80;99.90
12384;DHT22;6256;63.808;20.336;2023-11-19T08:37:35;-7.60;99.90
12384;DHT22;6256;63.808;20.336;2023-11-19T08:40:02;-7.50;99.90
12384;DHT22;6256;63.808;20.336;2023-11-19T08:42:32;-7.40;99.90
12384;DHT22;6256;63.808;20.336;2023-11-19T08:44:58;-7.30;99.90
12384;DHT22;6256;63.808;20.336;2023-11-19T08:47:24;-7.20;99.90
12384;DHT22;6256;63.808;20.336;2023-11-19T08:49:53;-7.10;99.90
12384;DHT22;6256;63.808;20.336;2023-11-19T08:52:19;-7.10;99.90
12384;DHT22;6256;63.808;20.336;2023-11-19T08:54:44;-7.00;99.90
12384;DHT22;6256;63.808;20.336;2023-11-19T08:57:10;-7.00;99.90
12384;DHT22;6256;63.808;20.336;2023-11-19T08:59:36;-6.90;99.90
12384;DHT22;6256;63.808;20.336;2023-11-19T09:02:06;-6.90;99.90
12384;DHT22;6256;63.808;20.336;2023-11-19T09:04:33;-6.90;99.90
12384;DHT22;6256;63.808;20.336;2023-11-19T09:06:59;-6.90;99.90
12384;DHT22;6256;63.808;20.336;2023-11-19T09:09:25;-7.00;99.90
12384;DHT22;6256;63.808;20.336;2023-11-19T09:11:51;-7.10;99.90
12384;DHT22;6256;63.808;20.336;2023-11-19T09:14:16;-7.10;99.90
12384;DHT22;6256;63.808;20.336;2023-11-19T09:16:43;-7.10;99.90
12384;DHT22;6256;63.808;20.336;2023-11-19T09:19:09;-7.20;99.90
12384;DHT22;6256;63.808;20.336;2023-11-19T09:21:35;-7.30;99.90
12384;DHT22;6256;63.808;20.336;2023-11-19T09:24:04;-7.30;99.90
12384;DHT22;6256;63.808;20.336;2023-11-19T09:26:30;-7.20;99.90
12384;DHT22;6256;63.808;20.336;2023-11-19T09:28:56;-7.20;99.90
12384;DHT22;6256;63.808;20.336;2023-11-19T09:31:22;-7.10;99.90
12384;DHT22;6256;63.808;20.336;2023-11-19T09:33:47;-6.90;99.90
12384;DHT22;6256;63.808;20.336;2023-11-19T09:36:13;-6.90;99.90
12384;DHT22;6256;63.808;20.336;2023-11-19T09:38:45;-6.90;99.90
12384;DHT22;6256;63.808;20.336;2023-11-19T09:41:11;-6.80;99.90
12384;DHT22;6256;63.808;20.336;2023-11-19T09:43:40;-6.80;99.90
12384;DHT22;6256;63.808;20.336;2023-11-19T09:46:07;-6.70;99.90
12384;DHT22;6256;63.808;20.336;2023-11-19T09:48:37;-6.60;99.90
12384;DHT22;6256;63.808;20.336;2023-11-19T09:51:04;-6.50;99.90
12384;DHT22;6256;63.808;20.336;2023-11-19T09:53:30;-6.40;99.90
12384;DHT22;6256;63.808;20.336;2023-11-19T09:55:58;-6.30;99.90
12384;DHT22;6256;63.808;20.336;2023-11-19T09:58:25;-6.10;99.90
12384;DHT22;6256;63.808;20.336;2023-11-19T10:00:51;-6.10;99.90
12384;DHT22;6256;63.808;20.336;2023-11-19T10:03:17;-6.00;99.90
12384;DHT22;6256;63.808;20.336;2023-11-19T10:05:43;-6.00;99.90
12384;DHT22;6256;63.808;20.336;2023-11-19T10:08:09;-5.80;99.90
12384;DHT22;6256;63.808;20.336;2023-11-19T10:10:37;-5.80;99.90
12384;DHT22;6256;63.808;20.336;2023-11-19T10:13:03;-5.60;99.90
12384;DHT22;6256;63.808;20.336;2023-11-19T10:15:33;-5.60;99.90
12384;DHT22;6256;63.808;20.336;2023-11-19T10:18:00;-5.50;99.90
12384;DHT22;6256;63.808;20.336;2023-11-19T10:20:26;-5.50;99.90
12384;DHT22;6256;63.808;20.336;2023-11-19T10:22:55;-5.40;99.90
12384;DHT22;6256;63.808;20.336;2023-11-19T10:25:25;-5.30;99.90
12384;DHT22;6256;63.808;20.336;2023-11-19T10:27:57;-5.20;99.90
12384;DHT22;6256;63.808;20.336;2023-11-19T10:30:27;-5.10;99.90
12384;DHT22;6256;63.808;20.336;2023-11-19T10:35:32;-5.00;99.90
12384;DHT22;6256;63.808;20.336;2023-11-19T10:37:59;-5.00;99.90
12384;DHT22;6256;63.808;20.336;2023-11-19T10:40:38;-4.90;99.90
12384;DHT22;6256;63.808;20.336;2023-11-19T10:43:05;-4.90;99.90
12384;DHT22;6256;63.808;20.336;2023-11-19T10:45:34;-4.80;99.90
12384;DHT22;6256;63.808;20.336;2023-11-19T10:48:00;-4.70;99.90
12384;DHT22;6256;63.808;20.336;2023-11-19T10:50:27;-4.60;99.90
12384;DHT22;6256;63.808;20.336;2023-11-19T10:52:57;-4.60;99.90
12384;DHT22;6256;63.808;20.336;2023-11-19T10:55:32;-4.50;99.90
12384;DHT22;6256;63.808;20.336;2023-11-19T10:58:19;-4.40;99.90
12384;DHT22;6256;63.808;20.336;2023-11-19T11:00:48;-4.40;99.90
12384;DHT22;6256;63.808;20.336;2023-11-19T11:03:24;-4.40;99.90
12384;DHT22;6256;63.808;20.336;2023-11-19T11:05:52;-4.30;99.90
12384;DHT22;6256;63.808;20.336;2023-11-19T11:08:19;-4.20;99.90
12384;DHT22;6256;63.808;20.336;2023-11-19T11:10:56;-4.20;99.90
12384;DHT22;6256;63.808;20.336;2023-11-19T11:13:24;-4.20;99.90
12384;DHT22;6256;63.808;20.336;2023-11-19T11:15:50;-4.10;99.90
12384;DHT22;6256;63.808;20.336;2023-11-19T11:18:17;-4.10;99.90
12384;DHT22;6256;63.808;20.336;2023-11-19T11:20:47;-4.10;99.90
12384;DHT22;6256;63.808;20.336;2023-11-19T11:29:24;-4.00;99.90
12384;DHT22;6256;63.808;20.336;2023-11-19T11:32:08;-4.00;99.90
12384;DHT22;6256;63.808;20.336;2023-11-19T11:34:51;-3.90;99.90
12384;DHT22;6256;63.808;20.336;2023-11-19T11:39:57;-3.90;99.90
12384;DHT22;6256;63.808;20.336;2023-11-19T11:45:09;-3.80;99.90
12384;DHT22;6256;63.808;20.336;2023-11-19T11:50:17;-3.70;99.90
12384;DHT22;6256;63.808;20.336;2023-11-19T11:57:53;-3.70;99.90
12384;DHT22;6256;63.808;20.336;2023-11-19T12:00:27;-3.70;99.90
12384;DHT22;6256;63.808;20.336;2023-11-19T12:03:01;-3.70;99.90
12384;DHT22;6256;63.808;20.336;2023-11-19T12:05:27;-3.60;99.90
12384;DHT22;6256;63.808;20.336;2023-11-19T12:08:04;-3.60;99.90
12384;DHT22;6256;63.808;20.336;2023-11-19T12:13:10;-3.50;99.90
12384;DHT22;6256;63.808;20.336;2023-11-19T12:18:30;-3.50;99.90
12384;DHT22;6256;63.808;20.336;2023-11-19T12:20:59;-3.50;99.90
12384;DHT22;6256;63.808;20.336;2023-11-19T12:23:31;-3.50;99.90
12384;DHT22;6256;63.808;20.336;2023-11-19T12:25:58;-3.50;99.90
12384;DHT22;6256;63.808;20.336;2023-11-19T12:28:23;-3.40;99.90
12384;DHT22;6256;63.808;20.336;2023-11-19T12:30:53;-3.40;99.90
12384;DHT22;6256;63.808;20.336;2023-11-19T12:33:19;-3.50;99.90
12384;DHT22;6256;63.808;20.336;2023-11-19T12:35:46;-3.50;99.90
12384;DHT22;6256;63.808;20.336;2023-11-19T12:38:39;-3.50;99.90
12384;DHT22;6256;63.808;20.336;2023-11-19T12:41:06;-3.50;99.90
12384;DHT22;6256;63.808;20.336;2023-11-19T12:43:32;-3.50;99.90
12384;DHT22;6256;63.808;20.336;2023-11-19T12:46:00;-3.50;99.90
12384;DHT22;6256;63.808;20.336;2023-11-19T12:48:25;-3.50;99.90
12384;DHT22;6256;63.808;20.336;2023-11-19T12:50:58;-3.60;99.90
12384;DHT22;6256;63.808;20.336;2023-11-19T12:53:26;-3.60;99.90
12384;DHT22;6256;63.808;20.336;2023-11-19T12:55:53;-3.60;99.90
12384;DHT22;6256;63.808;20.336;2023-11-19T12:58:34;-3.60;99.90
12384;DHT22;6256;63.808;20.336;2023-11-19T13:01:03;-3.60;99.90
12384;DHT22;6256;63.808;20.336;2023-11-19T13:03:33;-3.60;99.90
12384;DHT22;6256;63.808;20.336;2023-11-19T13:06:03;-3.60;99.90
12384;DHT22;6256;63.808;20.336;2023-11-19T13:08:57;-3.60;99.90
12384;DHT22;6256;63.808;20.336;2023-11-19T13:11:35;-3.60;99.90
12384;DHT22;6256;63.808;20.336;2023-11-19T13:14:02;-3.50;99.90
12384;DHT22;6256;63.808;20.336;2023-11-19T13:16:36;-3.50;99.90
12384;DHT22;6256;63.808;20.336;2023-11-19T13:19:02;-3.50;99.90
12384;DHT22;6256;63.808;20.336;2023-11-19T13:21:29;-3.50;99.90
12384;DHT22;6256;63.808;20.336;2023-11-19T13:23:57;-3.50;99.90
12384;DHT22;6256;63.808;20.336;2023-11-19T13:26:23;-3.50;99.90
12384;DHT22;6256;63.808;20.336;2023-11-19T13:28:49;-3.40;99.90
12384;DHT22;6256;63.808;20.336;2023-11-19T13:31:15;-3.50;99.90
12384;DHT22;6256;63.808;20.336;2023-11-19T13:33:41;-3.50;99.90
12384;DHT22;6256;63.808;20.336;2023-11-19T13:36:07;-3.50;99.90
12384;DHT22;6256;63.808;20.336;2023-11-19T13:38:36;-3.50;99.90
12384;DHT22;6256;63.808;20.336;2023-11-19T13:41:05;-3.50;99.90
12384;DHT22;6256;63.808;20.336;2023-11-19T13:43:31;-3.60;99.90
12384;DHT22;6256;63.808;20.336;2023-11-19T13:45:57;-3.60;99.90
12384;DHT22;6256;63.808;20.336;2023-11-19T13:48:24;-3.50;99.90
12384;DHT22;6256;63.808;20.336;2023-11-19T13:50:50;-3.60;99.90
12384;DHT22;6256;63.808;20.336;2023-11-19T13:53:16;-3.60;99.90
12384;DHT22;6256;63.808;20.336;2023-11-19T13:55:42;-3.60;99.90
12384;DHT22;6256;63.808;20.336;2023-11-19T13:58:08;-3.60;99.90
12384;DHT22;6256;63.808;20.336;2023-11-19T14:00:34;-3.60;99.90
12384;DHT22;6256;63.808;20.336;2023-11-19T14:03:00;-3.60;99.90
12384;DHT22;6256;63.808;20.336;2023-11-19T14:05:25;-3.60;99.90
12384;DHT22;6256;63.808;20.336;2023-11-19T14:07:52;-3.60;99.90
12384;DHT22;6256;63.808;20.336;2023-11-19T14:10:19;-3.70;99.90
12384;DHT22;6256;63.808;20.336;2023-11-19T14:12:45;-3.70;99.90
12384;DHT22;6256;63.808;20.336;2023-11-19T14:15:11;-3.80;99.90
12384;DHT22;6256;63.808;20.336;2023-11-19T14:17:40;-3.80;99.90
12384;DHT22;6256;63.808;20.336;2023-11-19T14:20:06;-3.80;99.90
12384;DHT22;6256;63.808;20.336;2023-11-19T14:22:39;-3.80;99.90
12384;DHT22;6256;63.808;20.336;2023-11-19T14:25:06;-3.80;99.90
12384;DHT22;6256;63.808;20.336;2023-11-19T14:27:38;-3.80;99.90
12384;DHT22;6256;63.808;20.336;2023-11-19T14:30:08;-3.80;99.90
12384;DHT22;6256;63.808;20.336;2023-11-19T14:32:35;-3.80;99.90
12384;DHT22;6256;63.808;20.336;2023-11-19T14:35:01;-3.80;99.90
12384;DHT22;6256;63.808;20.336;2023-11-19T14:37:29;-3.80;99.90
12384;DHT22;6256;63.808;20.336;2023-11-19T14:39:56;-3.80;99.90
12384;DHT22;6256;63.808;20.336;2023-11-19T14:42:23;-3.80;99.90
12384;DHT22;6256;63.808;20.336;2023-11-19T14:44:51;-3.90;99.90
12384;DHT22;6256;63.808;20.336;2023-11-19T14:47:19;-3.90;99.90
12384;DHT22;6256;63.808;20.336;2023-11-19T14:49:45;-3.80;99.90
12384;DHT22;6256;63.808;20.336;2023-11-19T14:52:10;-3.90;99.90
12384;DHT22;6256;63.808;20.336;2023-11-19T14:54:37;-3.90;99.90
12384;DHT22;6256;63.808;20.336;2023-11-19T14:57:07;-3.90;99.90
12384;DHT22;6256;63.808;20.336;2023-11-19T14:59:39;-3.80;99.90
12384;DHT22;6256;63.808;20.336;2023-11-19T15:02:04;-3.80;99.90
12384;DHT22;6256;63.808;20.336;2023-11-19T15:04:31;-3.90;99.90
12384;DHT22;6256;63.808;20.336;2023-11-19T15:06:57;-3.90;99.90
12384;DHT22;6256;63.808;20.336;2023-11-19T15:09:23;-3.90;99.90
12384;DHT22;6256;63.808;20.336;2023-11-19T15:11:50;-3.90;99.90
12384;DHT22;6256;63.808;20.336;2023-11-19T15:14:16;-4.00;99.90
12384;DHT22;6256;63.808;20.336;2023-11-19T15:16:44;-4.00;99.90
12384;DHT22;6256;63.808;20.336;2023-11-19T15:19:11;-4.00;99.90
12384;DHT22;6256;63.808;20.336;2023-11-19T15:21:38;-4.00;99.90
12384;DHT22;6256;63.808;20.336;2023-11-19T15:24:04;-4.00;99.90
12384;DHT22;6256;63.808;20.336;2023-11-19T15:26:36;-4.00;99.90
12384;DHT22;6256;63.808;20.336;2023-11-19T15:29:02;-4.00;99.90
12384;DHT22;6256;63.808;20.336;2023-11-19T15:31:29;-3.90;99.90
12384;DHT22;6256;63.808;20.336;2023-11-19T15:33:55;-3.90;99.90
12384;DHT22;6256;63.808;20.336;2023-11-19T15:36:21;-3.90;99.90
12384;DHT22;6256;63.808;20.336;2023-11-19T15:38:47;-4.00;99.90
12384;DHT22;6256;63.808;20.336;2023-11-19T15:41:12;-4.00;99.90
12384;DHT22;6256;63.808;20.336;2023-11-19T15:43:38;-4.00;99.90
12384;DHT22;6256;63.808;20.336;2023-11-19T15:46:08;-4.00;99.90
12384;DHT22;6256;63.808;20.336;2023-11-19T15:48:34;-4.00;99.90
12384;DHT22;6256;63.808;20.336;2023-11-19T15:50:59;-4.10;99.90
12384;DHT22;6256;63.808;20.336;2023-11-19T15:53:25;-4.10;99.90
12384;DHT22;6256;63.808;20.336;2023-11-19T15:55:51;-4.00;99.90
12384;DHT22;6256;63.808;20.336;2023-11-19T15:58:19;-4.00;99.90
12384;DHT22;6256;63.808;20.336;2023-11-19T16:00:44;-4.10;99.90